createdAt,value
2018-02-14T00:01:30.337Z,69.60
2018-02-14T00:03:58.007Z,69.60
2018-02-14T00:06:27.205Z,69.10
2018-02-14T00:08:54.827Z,69.40
2018-02-14T00:11:23.388Z,68.30
2018-02-14T00:13:51.996Z,68.50
2018-02-14T00:16:20.479Z,69.50
2018-02-14T00:18:48.183Z,69.50
2018-02-14T00:21:15.836Z,69.00
2018-02-14T00:23:43.482Z,69.70
2018-02-14T00:26:11.188Z,68.40
2018-02-14T00:28:38.876Z,66.40
2018-02-14T00:31:06.590Z,67.80
2018-02-14T00:33:35.056Z,65.10
2018-02-14T00:36:02.787Z,65.10
2018-02-14T00:38:30.475Z,64.00
2018-02-14T00:40:58.263Z,65.40
2018-02-14T00:43:25.954Z,64.80
2018-02-14T00:45:53.639Z,65.30
2018-02-14T00:48:21.287Z,65.60
2018-02-14T00:50:49.077Z,65.50
2018-02-14T00:53:16.854Z,66.30
2018-02-14T00:55:44.576Z,67.30
2018-02-14T00:58:13.092Z,66.00
2018-02-14T01:00:40.823Z,66.00
2018-02-14T01:03:08.530Z,66.90
2018-02-14T01:05:36.247Z,67.20
2018-02-14T01:08:03.949Z,65.80
2018-02-14T01:10:32.398Z,68.80
2018-02-14T01:13:02.131Z,68.80
2018-02-14T01:15:29.883Z,69.30
2018-02-14T01:17:57.616Z,69.20
2018-02-14T01:20:25.281Z,68.70
2018-02-14T01:22:53.030Z,69.90
2018-02-14T01:25:20.648Z,69.10
2018-02-14T01:27:48.311Z,69.80
2018-02-14T01:30:15.928Z,69.50
2018-02-14T01:32:43.576Z,70.80
2018-02-14T01:35:12.002Z,69.60
2018-02-14T01:37:39.627Z,69.50
2018-02-14T01:40:09.044Z,70.60
2018-02-14T01:42:36.704Z,70.70
2018-02-14T01:45:05.117Z,70.90
2018-02-14T01:47:32.759Z,70.80
2018-02-14T01:50:01.149Z,70.80
2018-02-14T01:52:28.790Z,70.80
2018-02-14T01:54:57.176Z,70.40
2018-02-14T01:57:25.584Z,70.70
2018-02-14T01:59:53.211Z,70.60
2018-02-14T02:02:20.848Z,70.40
2018-02-14T02:04:48.552Z,70.20
2018-02-14T02:07:16.200Z,70.10
2018-02-14T02:09:43.831Z,69.70
2018-02-14T02:12:11.528Z,70.00
2018-02-14T02:14:39.155Z,69.20
2018-02-14T02:17:06.801Z,70.10
2018-02-14T02:19:35.199Z,70.30
2018-02-14T02:22:02.912Z,70.30
2018-02-14T02:24:30.540Z,69.60
2018-02-14T02:26:58.167Z,69.50
2018-02-14T02:29:25.800Z,69.20
2018-02-14T02:31:53.428Z,67.40
2018-02-14T02:34:21.984Z,68.50
2018-02-14T02:36:49.636Z,69.10
2018-02-14T02:39:29.330Z,70.40
2018-02-14T02:41:56.947Z,68.30
2018-02-14T02:44:24.610Z,69.60
2018-02-14T02:46:52.243Z,69.60
2018-02-14T02:49:19.916Z,70.90
2018-02-14T02:51:47.587Z,71.30
2018-02-14T02:54:15.200Z,70.90
2018-02-14T02:56:43.627Z,70.60
2018-02-14T02:59:11.282Z,70.50
2018-02-14T03:01:39.004Z,71.60
2018-02-14T03:04:10.432Z,71.40
2018-02-14T03:06:38.050Z,71.90
2018-02-14T03:09:06.440Z,70.90
2018-02-14T03:11:34.103Z,71.60
2018-02-14T03:14:01.758Z,70.20
2018-02-14T03:16:30.171Z,70.40
2018-02-14T03:18:57.843Z,70.40
2018-02-14T03:21:25.467Z,71.50
2018-02-14T03:23:53.388Z,71.50
2018-02-14T03:26:21.023Z,72.00
2018-02-14T03:28:48.689Z,71.00
2018-02-14T03:31:16.320Z,71.90
2018-02-14T03:33:43.958Z,71.80
2018-02-14T03:36:11.646Z,71.70
2018-02-14T03:38:39.275Z,70.60
2018-02-14T03:41:06.908Z,69.90
2018-02-14T03:43:35.300Z,69.70
2018-02-14T03:46:03.700Z,70.20
2018-02-14T03:48:31.327Z,70.10
2018-02-14T03:51:02.163Z,70.00
2018-02-14T03:53:29.811Z,69.50
2018-02-14T03:55:57.438Z,69.30
2018-02-14T03:58:25.055Z,69.60
2018-02-14T04:00:52.683Z,68.90
2018-02-14T04:03:20.327Z,69.50
2018-02-14T04:05:47.989Z,69.20
2018-02-14T04:08:15.605Z,70.20
2018-02-14T04:10:43.236Z,70.40
2018-02-14T04:13:10.896Z,70.50
2018-02-14T04:15:38.533Z,69.80
2018-02-14T04:18:06.937Z,70.10
2018-02-14T04:20:35.336Z,69.80
2018-02-14T04:23:02.963Z,69.70
2018-02-14T04:25:30.595Z,69.20
2018-02-14T04:27:58.256Z,69.60
2018-02-14T04:30:25.891Z,69.60
2018-02-14T04:32:53.543Z,68.80
2018-02-14T04:35:21.186Z,70.40
2018-02-14T04:37:48.859Z,70.70
2018-02-14T04:40:35.694Z,70.90
2018-02-14T04:43:03.368Z,70.60
2018-02-14T04:45:31.009Z,70.40
2018-02-14T04:47:58.631Z,70.70
2018-02-14T04:50:26.264Z,70.50
2018-02-14T04:52:53.896Z,70.10
2018-02-14T04:55:21.544Z,70.40
2018-02-14T04:57:49.202Z,68.70
2018-02-14T05:00:16.825Z,69.00
2018-02-14T05:02:44.455Z,71.10
2018-02-14T05:05:12.104Z,69.60
2018-02-14T05:07:39.728Z,71.50
2018-02-14T05:10:07.364Z,71.10
2018-02-14T05:12:35.000Z,70.20
2018-02-14T05:15:02.644Z,70.20
2018-02-14T05:17:30.268Z,69.90
2018-02-14T05:19:58.855Z,69.80
2018-02-14T05:22:27.255Z,70.80
2018-02-14T05:24:54.904Z,71.50
2018-02-14T05:27:23.311Z,69.40
2018-02-14T05:29:58.726Z,70.20
2018-02-14T05:32:27.137Z,70.20
2018-02-14T05:34:54.769Z,70.20
2018-02-14T05:37:22.403Z,70.20
2018-02-14T05:39:50.052Z,69.90
2018-02-14T05:42:17.683Z,69.90
2018-02-14T05:44:46.080Z,69.90
2018-02-14T05:47:13.770Z,69.70
2018-02-14T05:49:41.388Z,70.90
2018-02-14T05:52:09.134Z,71.70
2018-02-14T05:54:36.756Z,71.20
2018-02-14T05:57:17.518Z,71.80
2018-02-14T05:59:45.138Z,71.20
2018-02-14T06:02:12.836Z,71.00
2018-02-14T06:04:41.252Z,70.90
2018-02-14T06:07:08.896Z,70.80
2018-02-14T06:09:36.543Z,71.70
2018-02-14T06:12:04.947Z,71.80
2018-02-14T06:14:32.624Z,70.90
2018-02-14T06:17:00.274Z,71.10
2018-02-14T06:19:28.683Z,72.20
2018-02-14T06:21:56.327Z,72.20
2018-02-14T06:24:24.719Z,71.90
2018-02-14T06:26:52.360Z,71.90
2018-02-14T06:29:20.768Z,72.50
2018-02-14T06:31:48.512Z,72.50
2018-02-14T06:34:16.924Z,71.90
2018-02-14T06:36:44.632Z,71.80
2018-02-14T06:39:12.280Z,72.20
2018-02-14T06:41:39.916Z,72.40
2018-02-14T06:44:07.617Z,72.70
2018-02-14T06:46:35.240Z,71.60
2018-02-14T06:49:03.149Z,71.10
2018-02-14T06:51:30.808Z,71.90
2018-02-14T06:53:58.472Z,72.70
2018-02-14T06:56:26.124Z,72.00
2018-02-14T06:58:53.825Z,70.90
2018-02-14T07:01:25.237Z,71.20
2018-02-14T07:03:53.631Z,70.60
2018-02-14T07:06:21.275Z,70.40
2018-02-14T07:08:48.915Z,71.90
2018-02-14T07:11:16.560Z,71.70
2018-02-14T07:13:44.203Z,70.40
2018-02-14T07:16:11.835Z,70.60
2018-02-14T07:18:40.252Z,70.70
2018-02-14T07:21:07.899Z,70.60
2018-02-14T07:23:36.295Z,70.80
2018-02-14T07:26:03.964Z,70.80
2018-02-14T07:28:31.603Z,71.20
2018-02-14T07:31:00.009Z,69.90
2018-02-14T07:33:27.651Z,69.70
2018-02-14T07:35:55.281Z,70.40
2018-02-14T07:38:22.914Z,71.80
2018-02-14T07:40:50.539Z,71.00
2018-02-14T07:43:18.187Z,70.90
2018-02-14T07:45:45.832Z,72.10
2018-02-14T07:48:13.520Z,72.10
2018-02-14T07:50:41.147Z,70.90
2018-02-14T07:53:08.823Z,72.10
2018-02-14T07:55:36.664Z,72.70
2018-02-14T07:58:05.081Z,72.70
2018-02-14T08:00:32.730Z,72.60
2018-02-14T08:03:00.364Z,72.20
2018-02-14T08:05:28.230Z,70.50
2018-02-14T08:07:56.747Z,71.80
2018-02-14T08:10:24.476Z,71.70
2018-02-14T08:12:52.116Z,70.60
2018-02-14T08:15:19.756Z,71.40
2018-02-14T08:17:47.779Z,70.30
2018-02-14T08:20:15.404Z,69.30
2018-02-14T08:22:43.046Z,69.20
2018-02-14T08:25:11.423Z,69.40
2018-02-14T08:27:39.809Z,64.80
2018-02-14T08:30:08.212Z,63.30
2018-02-14T08:32:35.844Z,63.30
2018-02-14T08:35:03.511Z,60.50
2018-02-14T08:37:31.155Z,58.40
2018-02-14T08:39:58.831Z,58.00
2018-02-14T08:42:26.451Z,56.50
2018-02-14T08:44:54.090Z,56.80
2018-02-14T08:47:21.744Z,56.50
2018-02-14T08:49:49.376Z,57.90
2018-02-14T08:52:17.008Z,56.30
2018-02-14T08:54:44.636Z,55.20
2018-02-14T08:57:12.268Z,55.00
2018-02-14T08:59:39.900Z,56.50
2018-02-14T09:02:07.532Z,54.40
2018-02-14T09:04:35.155Z,54.90
2018-02-14T09:07:02.795Z,52.70
2018-02-14T09:09:30.420Z,51.40
2018-02-14T09:11:58.064Z,52.40
2018-02-14T09:14:25.667Z,50.00
2018-02-14T09:16:53.360Z,49.60
2018-02-14T09:19:20.992Z,49.90
2018-02-14T09:21:48.619Z,47.00
2018-02-14T09:24:16.251Z,47.60
2018-02-14T09:26:44.630Z,46.50
2018-02-14T09:29:13.016Z,46.30
2018-02-14T09:31:41.447Z,47.00
2018-02-14T09:34:09.991Z,46.90
2018-02-14T09:36:37.623Z,45.60
2018-02-14T09:39:05.264Z,45.80
2018-02-14T09:41:32.877Z,43.70
2018-02-14T09:44:00.536Z,43.50
2018-02-14T09:46:28.171Z,44.50
2018-02-14T09:48:55.795Z,43.80
2018-02-14T09:51:24.184Z,42.70
2018-02-14T09:53:51.823Z,42.70
2018-02-14T09:56:19.415Z,44.60
2018-02-14T09:58:47.044Z,43.70
2018-02-14T10:01:14.676Z,44.30
2018-02-14T10:03:42.278Z,43.20
2018-02-14T10:06:09.883Z,43.20
2018-02-14T10:08:37.503Z,41.70
2018-02-14T10:11:05.130Z,42.90
2018-02-14T10:13:32.745Z,41.00
2018-02-14T10:16:00.384Z,43.10
2018-02-14T10:18:27.992Z,41.80
2018-02-14T10:20:56.364Z,42.60
2018-02-14T10:23:23.987Z,42.60
2018-02-14T10:25:51.602Z,41.50
2018-02-14T10:28:19.216Z,42.00
2018-02-14T10:30:46.847Z,41.50
2018-02-14T10:33:22.845Z,42.40
2018-02-14T10:35:50.452Z,41.60
2018-02-14T10:38:18.856Z,38.20
2018-02-14T10:40:47.236Z,38.90
2018-02-14T10:43:14.847Z,38.90
2018-02-14T10:45:42.468Z,37.50
2018-02-14T10:48:10.098Z,38.20
2018-02-14T10:50:37.716Z,39.00
2018-02-14T10:53:05.356Z,39.70
2018-02-14T10:55:33.732Z,36.00
2018-02-14T10:58:02.117Z,35.00
2018-02-14T11:00:30.621Z,35.60
2018-02-14T11:02:58.264Z,36.30
2018-02-14T11:05:41.168Z,35.20
2018-02-14T11:08:15.070Z,35.30
2018-02-14T11:10:42.671Z,36.80
2018-02-14T11:13:10.292Z,35.70
2018-02-14T11:15:37.920Z,35.50
2018-02-14T11:18:05.527Z,33.40
2018-02-14T11:20:33.152Z,35.60
2018-02-14T11:23:00.768Z,35.40
2018-02-14T11:25:28.412Z,35.80
2018-02-14T11:27:56.029Z,35.90
2018-02-14T11:30:24.413Z,34.20
2018-02-14T11:32:52.032Z,34.00
2018-02-14T11:35:19.660Z,35.00
2018-02-14T11:37:47.268Z,32.90
2018-02-14T11:40:14.896Z,33.90
2018-02-14T11:42:54.749Z,34.60
2018-02-14T11:45:22.385Z,32.50
2018-02-14T11:47:50.767Z,29.80
2018-02-14T11:50:18.387Z,29.80
2018-02-14T11:52:45.996Z,34.00
2018-02-14T11:55:14.389Z,35.90
2018-02-14T11:57:42.771Z,31.90
2018-02-14T12:00:11.422Z,32.00
2018-02-14T12:02:39.125Z,32.00
2018-02-14T12:05:07.505Z,31.30
2018-02-14T12:07:35.889Z,30.20
2018-02-14T12:10:03.556Z,30.20
2018-02-14T12:12:31.932Z,30.30
2018-02-14T12:15:00.344Z,35.20
2018-02-14T12:17:27.962Z,35.20
2018-02-14T12:20:03.369Z,33.00
2018-02-14T12:22:31.028Z,30.40
2018-02-14T12:24:58.678Z,28.70
2018-02-14T12:27:26.361Z,32.00
2018-02-14T12:29:53.998Z,31.60
2018-02-14T12:32:22.404Z,28.30
2018-02-14T12:34:50.036Z,28.20
2018-02-14T12:37:18.440Z,27.20
2018-02-14T12:39:46.084Z,27.10
2018-02-14T12:42:13.692Z,27.00
2018-02-14T12:44:41.316Z,26.60
2018-02-14T12:47:09.712Z,26.60
2018-02-14T12:49:37.356Z,26.60
2018-02-14T12:52:05.013Z,26.80
2018-02-14T12:54:32.611Z,28.80
2018-02-14T12:57:00.992Z,26.60
2018-02-14T12:59:29.379Z,25.60
2018-02-14T13:01:57.005Z,25.70
2018-02-14T13:04:24.637Z,21.50
2018-02-14T13:06:52.255Z,24.90
2018-02-14T13:09:19.937Z,23.50
2018-02-14T13:11:48.335Z,23.00
2018-02-14T13:14:15.967Z,22.90
2018-02-14T13:16:43.588Z,23.70
2018-02-14T13:19:11.218Z,23.00
2018-02-14T13:21:38.896Z,19.50
2018-02-14T13:24:06.516Z,22.10
2018-02-14T13:26:34.140Z,21.40
2018-02-14T13:29:01.760Z,21.00
2018-02-14T13:31:29.384Z,22.20
2018-02-14T13:33:56.993Z,21.90
2018-02-14T13:36:25.444Z,23.70
2018-02-14T13:38:53.076Z,23.70
2018-02-14T13:41:20.696Z,22.70
2018-02-14T13:43:48.323Z,23.10
2018-02-14T13:46:15.964Z,24.30
2018-02-14T13:48:43.588Z,24.10
2018-02-14T13:51:11.207Z,25.60
2018-02-14T13:53:38.868Z,23.90
2018-02-14T13:56:06.491Z,25.00
2018-02-14T13:58:34.225Z,24.70
2018-02-14T14:01:01.976Z,23.20
2018-02-14T14:03:29.598Z,19.70
2018-02-14T14:05:57.211Z,20.10
2018-02-14T14:08:24.836Z,19.20
2018-02-14T14:10:52.465Z,21.30
2018-02-14T14:13:20.096Z,23.40
2018-02-14T14:15:47.719Z,22.00
2018-02-14T14:18:15.343Z,26.30
2018-02-14T14:20:42.955Z,23.90
2018-02-14T14:23:10.575Z,25.20
2018-02-14T14:25:38.207Z,24.70
2018-02-14T14:28:05.844Z,25.50
2018-02-14T14:30:33.488Z,28.00
2018-02-14T14:33:01.120Z,27.10
2018-02-14T14:35:29.508Z,28.20
2018-02-14T14:37:57.890Z,25.90
2018-02-14T14:40:26.272Z,28.70
2018-02-14T14:42:53.912Z,28.80
2018-02-14T14:45:22.293Z,26.00
2018-02-14T14:47:49.923Z,26.30
2018-02-14T14:50:17.536Z,28.80
2018-02-14T14:52:45.934Z,30.50
2018-02-14T14:55:13.600Z,30.40
2018-02-14T14:57:41.987Z,32.60
2018-02-14T15:00:09.620Z,32.60
2018-02-14T15:02:37.265Z,33.40
2018-02-14T15:05:04.892Z,28.80
2018-02-14T15:07:32.584Z,29.70
2018-02-14T15:10:01.036Z,32.10
2018-02-14T15:12:28.664Z,31.90
2018-02-14T15:14:56.288Z,32.40
2018-02-14T15:17:23.955Z,29.80
2018-02-14T15:19:51.584Z,30.00
2018-02-14T15:22:19.968Z,30.00
2018-02-14T15:24:48.357Z,29.80
2018-02-14T15:27:20.512Z,31.30
2018-02-14T15:29:48.486Z,31.30
2018-02-14T15:32:16.106Z,35.20
2018-02-14T15:34:44.443Z,34.10
2018-02-14T15:37:12.884Z,33.00
2018-02-14T15:39:40.497Z,33.00
2018-02-14T15:42:08.959Z,33.20
2018-02-14T15:44:36.592Z,33.20
2018-02-14T15:47:04.225Z,33.90
2018-02-14T15:49:32.630Z,32.40
2018-02-14T15:52:00.276Z,32.60
2018-02-14T15:54:27.888Z,34.20
2018-02-14T15:56:55.578Z,36.40
2018-02-14T15:59:24.714Z,35.10
2018-02-14T16:01:52.340Z,35.30
2018-02-14T16:04:27.252Z,34.80
2018-02-14T16:06:54.913Z,34.80
2018-02-14T16:09:23.286Z,35.30
2018-02-14T16:11:50.906Z,35.30
2018-02-14T16:14:19.653Z,35.00
2018-02-14T16:16:47.269Z,36.30
2018-02-14T16:19:15.688Z,35.30
2018-02-14T16:21:44.048Z,38.30
2018-02-14T16:24:11.674Z,38.30
2018-02-14T16:26:39.292Z,38.00
2018-02-14T16:29:06.908Z,38.90
2018-02-14T16:31:34.526Z,36.90
2018-02-14T16:34:02.139Z,42.10
2018-02-14T16:36:29.802Z,39.70
2018-02-14T16:38:57.369Z,40.30
2018-02-14T16:41:25.127Z,42.80
2018-02-14T16:43:53.059Z,43.80
2018-02-14T16:46:20.686Z,45.00
2018-02-14T16:48:48.316Z,39.50
2018-02-14T16:51:15.932Z,41.70
2018-02-14T16:53:44.365Z,44.00
2018-02-14T16:56:11.960Z,44.10
2018-02-14T16:58:39.579Z,44.20
2018-02-14T17:01:07.225Z,42.00
2018-02-14T17:03:35.098Z,43.90
2018-02-14T17:06:03.506Z,45.00
2018-02-14T17:08:31.381Z,45.00
2018-02-14T17:10:58.999Z,41.40
2018-02-14T17:13:26.615Z,42.00
2018-02-14T17:15:54.223Z,42.70
2018-02-14T17:18:21.843Z,43.20
2018-02-14T17:20:49.487Z,43.80
2018-02-14T17:23:17.112Z,45.00
2018-02-14T17:25:44.720Z,41.90
2018-02-14T17:28:12.349Z,44.50
2018-02-14T17:30:39.988Z,43.60
2018-02-14T17:33:07.614Z,44.30
2018-02-14T17:35:35.272Z,46.10
2018-02-14T17:38:02.915Z,44.20
2018-02-14T17:40:31.627Z,45.30
2018-02-14T17:43:00.101Z,41.80
2018-02-14T17:45:28.513Z,45.20
2018-02-14T17:47:56.132Z,45.00
2018-02-14T17:50:23.776Z,45.10
2018-02-14T17:52:51.412Z,43.00
2018-02-14T17:55:19.055Z,46.20
2018-02-14T17:57:47.444Z,45.40
2018-02-14T18:00:16.082Z,46.20
2018-02-14T18:02:43.697Z,46.20
2018-02-14T18:05:11.312Z,46.20
2018-02-14T18:07:38.956Z,46.30
2018-02-14T18:10:06.588Z,47.80
2018-02-14T18:12:34.984Z,50.50
2018-02-14T18:15:02.610Z,50.50
2018-02-14T18:17:30.236Z,50.30
2018-02-14T18:19:57.880Z,52.00
2018-02-14T18:22:26.263Z,52.20
2018-02-14T18:24:53.933Z,52.20
2018-02-14T18:27:21.567Z,48.50
2018-02-14T18:29:49.248Z,51.80
2018-02-14T18:32:16.892Z,49.40
2018-02-14T18:34:44.512Z,48.30
2018-02-14T18:37:12.132Z,46.90
2018-02-14T18:39:39.782Z,50.70
2018-02-14T18:42:07.412Z,49.00
2018-02-14T18:44:35.029Z,49.70
2018-02-14T18:47:02.659Z,53.10
2018-02-14T18:49:30.300Z,52.20
2018-02-14T18:51:57.976Z,50.20
2018-02-14T18:54:25.607Z,51.70
2018-02-14T18:56:54.088Z,49.90
2018-02-14T18:59:21.856Z,49.90
2018-02-14T19:01:49.516Z,52.00
2018-02-14T19:04:17.805Z,49.10
2018-02-14T19:06:45.509Z,49.70
2018-02-14T19:09:13.477Z,48.40
2018-02-14T19:11:41.148Z,50.30
2018-02-14T19:14:09.525Z,51.10
2018-02-14T19:16:37.164Z,51.00
2018-02-14T19:19:05.564Z,49.30
2018-02-14T19:21:33.976Z,50.10
2018-02-14T19:24:01.928Z,50.10
2018-02-14T19:26:30.363Z,47.90
2018-02-14T19:28:57.956Z,47.90
2018-02-14T19:31:26.361Z,49.20
2018-02-14T19:33:54.000Z,49.10
2018-02-14T19:36:21.642Z,47.20
2018-02-14T19:38:50.201Z,47.50
2018-02-14T19:41:17.926Z,47.50
2018-02-14T19:43:46.520Z,48.60
2018-02-14T19:46:14.167Z,49.90
2018-02-14T19:48:43.326Z,46.50
2018-02-14T19:51:11.065Z,46.50
2018-02-14T19:53:38.726Z,49.00
2018-02-14T19:56:07.457Z,49.40
2018-02-14T19:58:35.165Z,49.40
2018-02-14T20:01:03.019Z,47.60
2018-02-14T20:03:30.693Z,49.00
2018-02-14T20:05:58.629Z,48.40
2018-02-14T20:08:26.485Z,49.80
2018-02-14T20:10:54.182Z,50.70
2018-02-14T20:13:21.794Z,47.00
2018-02-14T20:15:49.452Z,47.90
2018-02-14T20:18:17.148Z,49.70
2018-02-14T20:20:44.784Z,48.20
2018-02-14T20:23:12.409Z,49.00
2018-02-14T20:25:40.052Z,52.50
2018-02-14T20:28:08.511Z,50.90
2018-02-14T20:30:36.179Z,48.30
2018-02-14T20:33:05.001Z,50.60
2018-02-14T20:35:32.725Z,49.00
2018-02-14T20:38:00.338Z,48.50
2018-02-14T20:40:27.956Z,49.20
2018-02-14T20:42:55.571Z,51.60
2018-02-14T20:45:23.213Z,50.60
2018-02-14T20:47:51.603Z,50.00
2018-02-14T20:50:19.230Z,50.00
2018-02-14T20:52:46.845Z,47.70
2018-02-14T20:55:14.476Z,52.10
2018-02-14T20:57:42.884Z,51.30
2018-02-14T21:00:10.599Z,50.70
2018-02-14T21:02:38.227Z,49.50
2018-02-14T21:05:05.844Z,51.70
2018-02-14T21:07:33.470Z,53.10
2018-02-14T21:10:01.124Z,50.20
2018-02-14T21:12:28.752Z,49.30
2018-02-14T21:14:57.973Z,48.60
2018-02-14T21:17:25.607Z,48.60
2018-02-14T21:19:53.243Z,50.40
2018-02-14T21:22:20.864Z,49.40
2018-02-14T21:24:49.262Z,49.10
2018-02-14T21:27:17.659Z,48.10
2018-02-14T21:29:45.294Z,48.10
2018-02-14T21:32:12.905Z,48.80
2018-02-14T21:34:40.531Z,51.30
2018-02-14T21:37:08.922Z,48.70
2018-02-14T21:39:37.307Z,48.50
2018-02-14T21:42:04.947Z,48.50
2018-02-14T21:44:32.566Z,48.70
2018-02-14T21:47:00.204Z,48.30
2018-02-14T21:49:27.876Z,49.50
2018-02-14T21:51:55.507Z,49.00
2018-02-14T21:54:26.148Z,49.20
2018-02-14T21:56:53.812Z,49.20
2018-02-14T21:59:21.511Z,48.50
2018-02-14T22:01:49.191Z,49.70
2018-02-14T22:04:17.843Z,50.00
2018-02-14T22:06:45.535Z,49.10
2018-02-14T22:09:13.170Z,48.00
2018-02-14T22:11:40.781Z,49.00
2018-02-14T22:14:08.416Z,47.60
2018-02-14T22:16:36.817Z,48.70
2018-02-14T22:19:04.507Z,48.60
2018-02-14T22:21:32.113Z,49.40
2018-02-14T22:23:59.741Z,49.80
2018-02-14T22:26:27.387Z,48.40
2018-02-14T22:28:55.027Z,47.60
2018-02-14T22:31:22.661Z,49.60
2018-02-14T22:33:50.293Z,49.20
2018-02-14T22:36:17.927Z,48.90
2018-02-14T22:38:46.332Z,47.60
2018-02-14T22:41:13.995Z,47.60
2018-02-14T22:43:41.613Z,50.10
2018-02-14T22:46:09.244Z,49.30
2018-02-14T22:48:36.921Z,49.40
2018-02-14T22:51:04.532Z,50.20
2018-02-14T22:53:32.209Z,48.40
2018-02-14T22:55:59.825Z,47.70
2018-02-14T22:58:27.449Z,45.90
2018-02-14T23:00:55.861Z,48.20
2018-02-14T23:03:23.486Z,48.30
2018-02-14T23:05:51.115Z,45.70
2018-02-14T23:08:18.849Z,47.40
2018-02-14T23:10:48.412Z,47.30
2018-02-14T23:13:16.036Z,46.60
2018-02-14T23:15:43.695Z,46.60
2018-02-14T23:18:11.320Z,46.50
2018-02-14T23:20:38.944Z,45.70
2018-02-14T23:23:06.601Z,44.80
2018-02-14T23:25:34.223Z,45.50
2018-02-14T23:28:01.843Z,46.90
2018-02-14T23:30:29.483Z,46.20
2018-02-14T23:32:57.104Z,47.30
2018-02-14T23:35:24.749Z,46.00
2018-02-14T23:37:52.369Z,45.70
2018-02-14T23:40:20.763Z,44.80
2018-02-14T23:42:49.148Z,44.90
2018-02-14T23:45:16.828Z,44.80
2018-02-14T23:47:44.448Z,44.80
2018-02-14T23:50:12.066Z,45.60
2018-02-14T23:52:39.684Z,44.60
2018-02-14T23:55:07.299Z,46.30
2018-02-14T23:57:34.941Z,45.10
